createdAt,value
2018-07-09T00:00:04.445Z,78.70
2018-07-09T00:02:32.197Z,78.80
2018-07-09T00:05:00.006Z,78.50
2018-07-09T00:07:27.748Z,79.00
2018-07-09T00:09:55.523Z,78.70
2018-07-09T00:12:23.263Z,79.20
2018-07-09T00:14:51.027Z,78.60
2018-07-09T00:17:18.813Z,78.80
2018-07-09T00:19:46.612Z,78.60
2018-07-09T00:22:14.316Z,78.90
2018-07-09T00:24:42.131Z,78.90
2018-07-09T00:27:09.965Z,78.40
2018-07-09T00:29:37.767Z,78.50
2018-07-09T00:32:05.512Z,79.10
2018-07-09T00:34:33.261Z,78.50
2018-07-09T00:37:01.059Z,78.50
2018-07-09T00:39:28.873Z,78.50
2018-07-09T00:41:56.741Z,78.50
2018-07-09T00:44:25.141Z,78.30
2018-07-09T00:46:53.021Z,78.40
2018-07-09T00:49:20.852Z,78.10
2018-07-09T00:51:48.675Z,78.00
2018-07-09T00:54:16.609Z,78.40
2018-07-09T00:56:44.407Z,77.80
2018-07-09T00:59:12.200Z,77.60
2018-07-09T01:01:40.010Z,77.90
2018-07-09T01:04:07.734Z,78.20
2018-07-09T01:06:35.439Z,78.30
2018-07-09T01:09:04.014Z,78.40
2018-07-09T01:11:43.121Z,78.30
2018-07-09T01:14:11.153Z,78.00
2018-07-09T01:16:38.889Z,78.40
2018-07-09T01:19:06.794Z,78.40
2018-07-09T01:21:34.615Z,78.40
2018-07-09T01:24:02.416Z,78.10
2018-07-09T01:26:30.152Z,78.40
2018-07-09T01:28:58.915Z,78.10
2018-07-09T01:31:26.705Z,78.40
2018-07-09T01:33:54.450Z,78.00
2018-07-09T01:36:22.156Z,78.30
2018-07-09T01:38:49.867Z,78.70
2018-07-09T01:41:17.605Z,78.50
2018-07-09T01:46:12.920Z,77.80
2018-07-09T01:48:40.625Z,78.40
2018-07-09T01:51:08.351Z,78.00
2018-07-09T01:53:36.041Z,78.00
2018-07-09T01:56:03.880Z,77.80
2018-07-09T01:58:31.571Z,77.70
2018-07-09T02:00:59.405Z,77.40
2018-07-09T02:03:27.111Z,77.60
2018-07-09T02:05:54.811Z,77.70
2018-07-09T02:08:22.584Z,77.60
2018-07-09T02:10:50.281Z,77.10
2018-07-09T02:13:17.975Z,77.80
2018-07-09T02:15:45.697Z,77.80
2018-07-09T02:18:13.415Z,77.60
2018-07-09T02:20:41.112Z,77.60
2018-07-09T02:23:08.952Z,77.70
2018-07-09T02:25:36.681Z,78.40
2018-07-09T02:28:04.419Z,78.30
2018-07-09T02:30:38.720Z,78.00
2018-07-09T02:33:06.464Z,78.10
2018-07-09T02:35:34.206Z,78.10
2018-07-09T02:38:01.930Z,78.10
2018-07-09T02:40:29.698Z,78.30
2018-07-09T02:42:57.398Z,78.20
2018-07-09T02:45:25.102Z,78.40
2018-07-09T02:47:52.785Z,78.60
2018-07-09T02:50:20.488Z,78.20
2018-07-09T02:52:48.278Z,78.40
2018-07-09T02:57:43.650Z,77.70
2018-07-09T03:00:11.502Z,77.80
2018-07-09T03:02:39.250Z,78.10
2018-07-09T03:05:06.952Z,78.20
2018-07-09T03:07:34.686Z,77.80
2018-07-09T03:10:02.366Z,77.50
2018-07-09T03:12:30.090Z,77.50
2018-07-09T03:14:57.814Z,77.30
2018-07-09T03:17:25.532Z,77.00
2018-07-09T03:19:53.241Z,77.00
2018-07-09T03:22:20.965Z,76.90
2018-07-09T03:24:48.644Z,77.10
2018-07-09T03:27:16.307Z,76.90
2018-07-09T03:29:44.069Z,77.10
2018-07-09T03:32:11.745Z,76.90
2018-07-09T03:34:39.406Z,77.10
2018-07-09T03:37:07.108Z,76.80
2018-07-09T03:39:34.814Z,77.20
2018-07-09T03:42:02.503Z,77.30
2018-07-09T03:44:30.184Z,77.20
2018-07-09T03:46:57.874Z,77.50
2018-07-09T03:49:25.557Z,77.20
2018-07-09T03:51:53.288Z,77.30
2018-07-09T03:54:21.008Z,77.00
2018-07-09T03:56:48.732Z,76.70
2018-07-09T03:59:16.442Z,77.10
2018-07-09T04:01:44.124Z,77.10
2018-07-09T04:04:11.805Z,77.30
2018-07-09T04:09:08.308Z,77.20
2018-07-09T04:11:36.020Z,76.90
2018-07-09T04:14:03.742Z,76.80
2018-07-09T04:16:31.426Z,76.50
2018-07-09T04:18:59.120Z,76.60
2018-07-09T04:21:26.811Z,76.70
2018-07-09T04:23:54.491Z,76.30
2018-07-09T04:26:22.281Z,76.20
2018-07-09T04:28:49.887Z,75.90
2018-07-09T04:31:17.599Z,76.30
2018-07-09T04:33:45.348Z,76.10
2018-07-09T04:36:13.027Z,76.00
2018-07-09T04:38:40.719Z,76.00
2018-07-09T04:41:08.428Z,76.50
2018-07-09T04:43:36.201Z,76.40
2018-07-09T04:46:03.948Z,76.20
2018-07-09T04:48:31.634Z,76.50
2018-07-09T04:50:59.324Z,76.30
2018-07-09T04:53:26.997Z,76.50
2018-07-09T04:55:54.696Z,75.90
2018-07-09T04:58:22.381Z,76.10
2018-07-09T05:00:50.072Z,76.30
2018-07-09T05:03:17.782Z,76.40
2018-07-09T05:05:45.503Z,76.40
2018-07-09T05:08:13.152Z,76.40
2018-07-09T05:10:40.852Z,76.50
2018-07-09T05:13:08.574Z,76.30
2018-07-09T05:15:36.248Z,76.50
2018-07-09T05:18:03.973Z,76.60
2018-07-09T05:20:31.660Z,76.90
2018-07-09T05:22:59.352Z,77.50
2018-07-09T05:25:27.056Z,76.80
2018-07-09T05:27:54.772Z,77.00
2018-07-09T05:30:22.461Z,76.70
2018-07-09T05:32:50.155Z,76.80
2018-07-09T05:35:17.865Z,76.80
2018-07-09T05:40:20.239Z,76.60
2018-07-09T05:42:48.588Z,76.50
2018-07-09T05:45:16.358Z,76.60
2018-07-09T05:47:44.161Z,76.60
2018-07-09T05:50:12.155Z,76.60
2018-07-09T05:52:39.881Z,76.50
2018-07-09T05:55:08.664Z,76.70
2018-07-09T05:57:36.371Z,76.70
2018-07-09T06:00:04.152Z,76.70
2018-07-09T06:02:31.860Z,76.90
2018-07-09T06:04:59.544Z,76.90
2018-07-09T06:07:27.326Z,77.00
2018-07-09T06:09:55.036Z,77.10
2018-07-09T06:12:22.737Z,77.20
2018-07-09T06:14:50.434Z,77.30
2018-07-09T06:17:18.156Z,77.40
2018-07-09T06:19:45.899Z,77.50
2018-07-09T06:22:13.722Z,78.00
2018-07-09T06:24:41.408Z,77.60
2018-07-09T06:27:09.108Z,77.80
2018-07-09T06:29:36.828Z,77.90
2018-07-09T06:32:04.610Z,78.00
2018-07-09T06:34:32.361Z,78.10
2018-07-09T06:37:00.105Z,78.30
2018-07-09T06:39:27.786Z,78.40
2018-07-09T06:41:55.500Z,78.60
2018-07-09T06:44:23.248Z,78.70
2018-07-09T06:46:50.977Z,78.90
2018-07-09T06:49:18.666Z,78.90
2018-07-09T06:51:46.413Z,79.00
2018-07-09T06:54:14.207Z,79.10
2018-07-09T06:56:41.953Z,79.30
2018-07-09T06:59:09.661Z,79.40
2018-07-09T07:04:05.104Z,79.50
2018-07-09T07:06:32.836Z,79.60
2018-07-09T07:09:00.731Z,79.70
2018-07-09T07:11:28.322Z,79.80
2018-07-09T07:13:56.048Z,80.00
2018-07-09T07:16:23.729Z,80.00
2018-07-09T07:18:51.478Z,80.20
2018-07-09T07:21:19.176Z,80.30
2018-07-09T07:23:46.877Z,80.40
2018-07-09T07:26:14.602Z,80.60
2018-07-09T07:28:42.331Z,80.60
2018-07-09T07:31:10.138Z,80.80
2018-07-09T07:33:37.864Z,80.80
2018-07-09T07:36:05.708Z,81.00
2018-07-09T07:38:33.577Z,81.00
2018-07-09T07:41:01.267Z,81.10
2018-07-09T07:43:29.033Z,81.20
2018-07-09T07:45:56.781Z,81.40
2018-07-09T07:48:24.465Z,81.40
2018-07-09T07:50:52.175Z,81.40
2018-07-09T07:53:19.943Z,81.60
2018-07-09T07:55:47.652Z,81.70
2018-07-09T07:58:15.352Z,81.80
2018-07-09T08:00:43.069Z,82.00
2018-07-09T08:05:38.344Z,82.10
2018-07-09T08:08:06.048Z,82.10
2018-07-09T08:10:33.808Z,82.20
2018-07-09T08:13:27.173Z,82.00
2018-07-09T08:15:29.302Z,82.00
2018-07-09T08:17:57.021Z,82.00
2018-07-09T08:20:24.784Z,82.00
2018-07-09T08:22:52.599Z,82.10
2018-07-09T08:25:20.417Z,82.20
2018-07-09T08:27:48.117Z,82.30
2018-07-09T08:30:15.874Z,82.50
2018-07-09T08:32:43.628Z,82.40
2018-07-09T08:35:11.351Z,82.50
2018-07-09T08:37:39.129Z,82.60
2018-07-09T08:40:06.925Z,82.60
2018-07-09T08:42:34.640Z,82.60
2018-07-09T08:45:02.407Z,82.70
2018-07-09T08:47:30.139Z,82.70
2018-07-09T08:49:57.801Z,82.90
2018-07-09T08:52:25.502Z,83.00
2018-07-09T08:54:53.251Z,83.10
2018-07-09T08:57:20.975Z,82.90
2018-07-09T08:59:48.755Z,82.90
2018-07-09T09:02:16.460Z,83.00
2018-07-09T09:07:11.765Z,83.10
2018-07-09T09:09:39.493Z,83.20
2018-07-09T09:12:07.242Z,83.10
2018-07-09T09:14:34.972Z,83.00
2018-07-09T09:17:02.684Z,83.10
2018-07-09T09:19:37.125Z,83.10
2018-07-09T09:22:04.861Z,83.20
2018-07-09T09:24:32.565Z,83.20
2018-07-09T09:27:00.355Z,83.10
2018-07-09T09:29:28.080Z,83.00
2018-07-09T09:31:55.898Z,83.10
2018-07-09T09:34:23.617Z,83.10
2018-07-09T09:36:51.356Z,83.30
2018-07-09T09:39:25.818Z,83.30
2018-07-09T09:41:53.540Z,83.30
2018-07-09T09:44:21.226Z,83.20
2018-07-09T09:46:48.970Z,83.40
2018-07-09T09:49:16.745Z,83.30
2018-07-09T09:51:44.408Z,83.30
2018-07-09T09:54:12.084Z,83.40
2018-07-09T09:56:39.837Z,83.60
2018-07-09T09:59:07.528Z,83.70
2018-07-09T10:01:35.254Z,84.00
2018-07-09T10:04:03.001Z,84.10
2018-07-09T10:06:30.720Z,84.60
2018-07-09T10:08:58.435Z,84.20
2018-07-09T10:11:26.179Z,84.10
2018-07-09T10:13:53.917Z,84.10
2018-07-09T10:16:21.613Z,83.80
2018-07-09T10:18:49.311Z,83.80
2018-07-09T10:21:17.023Z,83.80
2018-07-09T10:23:44.721Z,83.80
2018-07-09T10:26:12.400Z,84.50
2018-07-09T10:28:40.098Z,83.80
2018-07-09T10:31:07.838Z,83.70
2018-07-09T10:33:35.553Z,83.60
2018-07-09T10:36:03.276Z,83.40
2018-07-09T10:38:30.956Z,83.40
2018-07-09T10:40:58.686Z,83.60
2018-07-09T10:43:26.403Z,84.20
2018-07-09T10:45:54.109Z,83.50
2018-07-09T10:48:21.808Z,83.60
2018-07-09T10:50:49.521Z,83.60
2018-07-09T10:53:17.246Z,83.70
2018-07-09T10:55:44.995Z,83.60
2018-07-09T10:58:12.717Z,83.50
2018-07-09T11:00:40.669Z,83.60
2018-07-09T11:03:08.388Z,83.50
2018-07-09T11:05:36.120Z,83.50
2018-07-09T11:08:03.879Z,83.70
2018-07-09T11:10:31.610Z,83.70
2018-07-09T11:15:26.900Z,83.60
2018-07-09T11:17:54.616Z,83.50
2018-07-09T11:20:22.304Z,83.60
2018-07-09T11:22:50.053Z,83.60
2018-07-09T11:25:17.826Z,83.70
2018-07-09T11:27:45.547Z,83.70
2018-07-09T11:30:13.295Z,83.70
2018-07-09T11:32:41.016Z,83.80
2018-07-09T11:35:08.757Z,83.90
2018-07-09T11:37:36.459Z,83.80
2018-07-09T11:40:04.316Z,83.70
2018-07-09T11:42:32.022Z,83.60
2018-07-09T11:44:59.753Z,83.50
2018-07-09T11:47:27.456Z,83.70
2018-07-09T11:49:55.160Z,83.30
2018-07-09T11:52:22.938Z,83.40
2018-07-09T11:54:50.644Z,83.40
2018-07-09T11:57:18.396Z,83.50
2018-07-09T11:59:46.200Z,83.60
2018-07-09T12:02:13.910Z,83.70
2018-07-09T12:04:41.703Z,83.60
2018-07-09T12:07:09.361Z,83.60
2018-07-09T12:09:37.097Z,83.70
2018-07-09T12:12:04.789Z,83.60
2018-07-09T12:14:32.487Z,83.70
2018-07-09T12:17:00.196Z,83.70
2018-07-09T12:19:27.896Z,83.60
2018-07-09T12:21:55.697Z,83.60
2018-07-09T12:24:23.380Z,83.90
2018-07-09T12:26:51.090Z,83.70
2018-07-09T12:29:18.828Z,83.70
2018-07-09T12:31:46.549Z,83.60
2018-07-09T12:34:14.242Z,83.80
2018-07-09T12:36:41.980Z,83.90
2018-07-09T12:39:09.688Z,83.80
2018-07-09T12:41:37.376Z,83.80
2018-07-09T12:44:05.128Z,83.70
2018-07-09T12:46:32.840Z,83.60
2018-07-09T12:49:01.497Z,83.40
2018-07-09T12:51:29.197Z,83.30
2018-07-09T12:53:57.180Z,83.10
2018-07-09T12:56:24.956Z,82.80
2018-07-09T12:58:52.710Z,82.60
2018-07-09T13:01:20.403Z,82.60
2018-07-09T13:03:48.119Z,82.60
2018-07-09T13:06:15.842Z,82.70
2018-07-09T13:08:44.000Z,82.90
2018-07-09T13:11:11.717Z,83.00
2018-07-09T13:13:39.414Z,83.10
2018-07-09T13:16:07.159Z,83.10
2018-07-09T13:18:34.900Z,83.10
2018-07-09T13:21:02.601Z,83.30
2018-07-09T13:23:30.313Z,83.40
2018-07-09T13:25:58.032Z,83.40
2018-07-09T13:28:25.765Z,84.20
2018-07-09T13:30:53.541Z,83.40
2018-07-09T13:33:21.292Z,83.50
2018-07-09T13:35:49.098Z,83.30
2018-07-09T13:38:16.824Z,83.40
2018-07-09T13:40:44.676Z,83.30
2018-07-09T13:43:12.409Z,83.50
2018-07-09T13:45:40.149Z,83.30
2018-07-09T13:48:07.858Z,83.30
2018-07-09T13:50:36.000Z,83.40
2018-07-09T13:53:03.736Z,83.40
2018-07-09T13:55:32.605Z,84.30
2018-07-09T13:58:00.388Z,83.50
2018-07-09T14:00:28.099Z,83.40
2018-07-09T14:02:55.806Z,83.00
2018-07-09T14:05:23.538Z,82.60
2018-07-09T14:07:51.209Z,82.40
2018-07-09T14:10:18.972Z,82.40
2018-07-09T14:12:46.648Z,82.30
2018-07-09T14:15:14.337Z,82.40
2018-07-09T14:17:42.022Z,82.60
2018-07-09T14:20:25.381Z,82.60
2018-07-09T14:22:53.208Z,83.20
2018-07-09T14:25:20.933Z,83.90
2018-07-09T14:27:48.752Z,84.30
2018-07-09T14:30:16.733Z,84.70
2018-07-09T14:32:44.447Z,85.00
2018-07-09T14:35:12.171Z,85.10
2018-07-09T14:40:07.532Z,84.70
2018-07-09T14:42:35.452Z,84.60
2018-07-09T14:45:03.721Z,84.50
2018-07-09T14:47:31.585Z,84.60
2018-07-09T14:49:59.295Z,84.70
2018-07-09T14:52:27.331Z,84.40
2018-07-09T14:54:55.021Z,84.40
2018-07-09T14:57:22.781Z,84.30
2018-07-09T14:59:50.492Z,84.30
2018-07-09T15:02:18.190Z,84.20
2018-07-09T15:04:46.139Z,84.10
2018-07-09T15:07:13.897Z,83.70
2018-07-09T15:09:41.685Z,84.20
2018-07-09T15:12:09.356Z,84.00
2018-07-09T15:14:37.032Z,83.90
2018-07-09T15:17:04.976Z,83.70
2018-07-09T15:19:32.669Z,83.80
2018-07-09T15:22:00.372Z,84.00
2018-07-09T15:24:28.133Z,84.00
2018-07-09T15:26:55.838Z,83.80
2018-07-09T15:29:23.540Z,83.90
2018-07-09T15:32:02.469Z,85.20
2018-07-09T15:34:30.180Z,84.60
2018-07-09T15:36:57.877Z,84.80
2018-07-09T15:39:25.586Z,85.50
2018-07-09T15:41:53.332Z,85.20
2018-07-09T15:44:21.024Z,85.30
2018-07-09T15:46:48.715Z,85.70
2018-07-09T15:49:16.433Z,85.10
2018-07-09T15:51:44.172Z,85.10
2018-07-09T15:54:11.871Z,85.30
2018-07-09T15:56:39.576Z,85.00
2018-07-09T15:59:07.268Z,84.80
2018-07-09T16:01:34.988Z,84.90
2018-07-09T16:04:02.715Z,84.90
2018-07-09T16:06:30.424Z,85.30
2018-07-09T16:08:58.124Z,85.60
2018-07-09T16:11:25.825Z,85.70
2018-07-09T16:13:53.609Z,85.50
2018-07-09T16:16:21.724Z,85.40
2018-07-09T16:18:49.423Z,85.70
2018-07-09T16:21:17.181Z,86.20
2018-07-09T16:23:44.941Z,85.90
2018-07-09T16:26:12.727Z,86.10
2018-07-09T16:28:40.387Z,86.00
2018-07-09T16:31:08.136Z,85.50
2018-07-09T16:33:35.878Z,85.00
2018-07-09T16:36:03.616Z,85.80
2018-07-09T16:38:31.324Z,86.20
2018-07-09T16:40:59.062Z,86.60
2018-07-09T16:43:27.638Z,86.70
2018-07-09T16:45:55.358Z,86.20
2018-07-09T16:48:23.076Z,86.80
2018-07-09T16:50:51.385Z,87.40
2018-07-09T16:53:19.243Z,87.20
2018-07-09T16:55:46.979Z,86.20
2018-07-09T16:58:14.737Z,85.50
2018-07-09T17:00:42.511Z,86.30
2018-07-09T17:03:10.762Z,86.30
2018-07-09T17:05:38.934Z,86.30
2018-07-09T17:08:07.409Z,86.20
2018-07-09T17:10:35.121Z,85.90
2018-07-09T17:13:02.838Z,86.00
2018-07-09T17:15:30.560Z,86.20
2018-07-09T17:17:58.324Z,85.80
2018-07-09T17:20:26.070Z,86.10
2018-07-09T17:22:53.797Z,86.10
2018-07-09T17:25:21.492Z,85.90
2018-07-09T17:27:49.180Z,86.10
2018-07-09T17:30:16.912Z,86.30
2018-07-09T17:32:44.615Z,86.10
2018-07-09T17:35:12.380Z,86.20
2018-07-09T17:37:40.127Z,86.30
2018-07-09T17:40:07.980Z,86.00
2018-07-09T17:42:35.873Z,86.20
2018-07-09T17:45:06.126Z,86.10
2018-07-09T17:47:33.967Z,86.10
2018-07-09T17:50:01.737Z,86.80
2018-07-09T17:52:29.419Z,86.20
2018-07-09T17:54:59.253Z,86.70
2018-07-09T17:57:26.970Z,86.90
2018-07-09T17:59:54.666Z,86.80
2018-07-09T18:02:22.476Z,86.90
2018-07-09T18:04:50.182Z,87.70
2018-07-09T18:07:17.922Z,86.70
2018-07-09T18:09:45.632Z,86.60
2018-07-09T18:12:13.326Z,86.10
2018-07-09T18:14:41.036Z,86.00
2018-07-09T18:17:08.850Z,86.50
2018-07-09T18:19:36.597Z,86.90
2018-07-09T18:22:04.333Z,87.00
2018-07-09T18:24:32.027Z,86.50
2018-07-09T18:26:59.770Z,87.00
2018-07-09T18:29:27.475Z,87.40
2018-07-09T18:31:55.208Z,88.20
2018-07-09T18:34:23.032Z,88.40
2018-07-09T18:36:50.742Z,88.80
2018-07-09T18:39:18.497Z,87.40
2018-07-09T18:41:46.218Z,88.10
2018-07-09T18:44:13.959Z,88.70
2018-07-09T18:46:42.393Z,88.40
2018-07-09T18:49:10.123Z,88.90
2018-07-09T18:51:37.865Z,89.80
2018-07-09T18:54:05.622Z,90.00
2018-07-09T18:56:33.337Z,90.20
2018-07-09T18:59:01.092Z,88.00
2018-07-09T19:01:28.886Z,88.20
2018-07-09T19:03:57.284Z,88.20
2018-07-09T19:09:41.029Z,87.90
2018-07-09T19:14:41.720Z,86.60
2018-07-09T19:17:52.332Z,86.80
2018-07-09T19:20:31.576Z,85.20
2018-07-09T19:23:00.004Z,84.40
2018-07-09T19:25:28.330Z,84.30
2018-07-09T19:27:56.750Z,84.40
2018-07-09T19:30:25.264Z,84.30
2018-07-09T19:32:53.789Z,83.90
2018-07-09T19:35:22.273Z,83.90
2018-07-09T19:37:51.213Z,83.90
2018-07-09T19:40:19.299Z,84.20
2018-07-09T19:42:47.734Z,85.40
2018-07-09T19:45:16.027Z,84.30
2018-07-09T19:47:44.414Z,84.70
2018-07-09T19:50:12.790Z,84.80
2018-07-09T19:52:41.157Z,84.40
2018-07-09T19:55:09.540Z,84.60
2018-07-09T19:57:37.837Z,84.30
2018-07-09T20:00:06.146Z,84.10
2018-07-09T20:02:34.479Z,84.10
2018-07-09T20:05:02.864Z,84.00
2018-07-09T20:07:31.201Z,84.20
2018-07-09T20:10:05.252Z,84.30
2018-07-09T20:12:39.376Z,84.30
2018-07-09T20:15:13.526Z,84.30
2018-07-09T20:17:42.847Z,84.50
2018-07-09T20:20:11.343Z,84.50
2018-07-09T20:22:39.814Z,84.60
2018-07-09T20:25:08.124Z,84.60
2018-07-09T20:27:36.478Z,84.80
2018-07-09T20:30:05.098Z,84.80
2018-07-09T20:32:33.408Z,84.80
2018-07-09T20:35:01.734Z,84.80
2018-07-09T20:37:30.155Z,85.10
2018-07-09T20:39:58.744Z,84.70
2018-07-09T20:42:27.179Z,84.50
2018-07-09T20:44:55.556Z,84.50
2018-07-09T20:47:23.936Z,84.50
2018-07-09T20:49:52.280Z,84.40
2018-07-09T20:52:20.582Z,84.60
2018-07-09T20:54:48.944Z,84.60
2018-07-09T20:57:17.234Z,84.60
2018-07-09T20:59:45.598Z,84.80
2018-07-09T21:04:41.892Z,84.90
2018-07-09T21:07:10.208Z,85.00
2018-07-09T21:09:38.645Z,85.10
2018-07-09T21:12:08.389Z,85.10
2018-07-09T21:14:36.680Z,85.20
2018-07-09T21:17:05.104Z,84.90
2018-07-09T21:19:33.479Z,85.10
2018-07-09T21:22:01.795Z,85.80
2018-07-09T21:24:30.126Z,85.30
2018-07-09T21:26:58.437Z,85.40
2018-07-09T21:29:26.798Z,85.30
2018-07-09T21:31:55.154Z,85.50
2018-07-09T21:34:23.536Z,85.50
2018-07-09T21:36:52.110Z,85.70
2018-07-09T21:39:20.562Z,85.70
2018-07-09T21:41:48.896Z,85.30
2018-07-09T21:44:17.270Z,85.60
2018-07-09T21:46:45.558Z,85.50
2018-07-09T21:49:14.002Z,85.20
2018-07-09T21:51:42.486Z,85.10
2018-07-09T21:54:11.008Z,85.40
2018-07-09T21:56:39.320Z,85.40
2018-07-09T21:59:07.658Z,85.30
2018-07-09T22:01:35.996Z,85.10
2018-07-09T22:06:32.509Z,85.10
2018-07-09T22:09:00.888Z,85.10
2018-07-09T22:11:29.248Z,84.90
2018-07-09T22:13:57.790Z,85.10
2018-07-09T22:16:26.205Z,85.10
2018-07-09T22:18:54.586Z,85.00
2018-07-09T22:21:22.984Z,85.10
2018-07-09T22:23:51.348Z,84.80
2018-07-09T22:26:19.708Z,84.70
2018-07-09T22:28:57.009Z,84.80
2018-07-09T22:31:24.809Z,84.90
2018-07-09T22:33:52.616Z,85.20
2018-07-09T22:36:20.320Z,85.20
2018-07-09T22:38:48.050Z,85.20
2018-07-09T22:41:15.811Z,84.70
2018-07-09T22:43:54.703Z,84.70
2018-07-09T22:46:22.411Z,84.00
2018-07-09T22:48:50.201Z,85.70
2018-07-09T22:51:18.083Z,84.40
2018-07-09T22:53:45.621Z,84.70
2018-07-09T22:56:14.045Z,84.70
2018-07-09T22:58:42.559Z,84.50
2018-07-09T23:01:10.326Z,85.20
2018-07-09T23:03:38.083Z,83.90
2018-07-09T23:06:05.878Z,84.10
2018-07-09T23:08:33.652Z,83.80
2018-07-09T23:11:12.324Z,82.90
2018-07-09T23:13:51.342Z,83.00
2018-07-09T23:16:55.266Z,83.10
2018-07-09T23:22:24.244Z,81.90
2018-07-09T23:24:52.754Z,83.10
2018-07-09T23:27:21.080Z,83.50
2018-07-09T23:29:49.440Z,82.40
2018-07-09T23:32:17.756Z,82.90
2018-07-09T23:34:46.124Z,82.70
2018-07-09T23:37:14.453Z,82.60
2018-07-09T23:39:42.838Z,82.60
2018-07-09T23:42:11.164Z,82.10
2018-07-09T23:44:39.532Z,82.90
2018-07-09T23:47:07.916Z,82.00
2018-07-09T23:49:36.296Z,81.60
2018-07-09T23:52:04.665Z,81.90
2018-07-09T23:54:33.044Z,82.80
2018-07-09T23:59:14.740Z,82.20
